Custer, SD

12:16 AM MDT on May 06, 2015 (GMT -0600)
Custer County | | Change Station
CLOSE
Current Station
Airport
Location: Custer,
Elevation: 5600 ft
Nearby Weather Stations

Elev 5600 ft 43.73 °N, 103.62 °W | Updated 23 minutes ago

Overcast
Overcast
47 °F
Feels Like 47 °F
N
5
Wind Variable Wind from Variable

Today
High -- | Low -- °F
--% Chance of Precip.
Yesterday
High -- | Low -- °F
Precip. -- in
5:40 AM 8:02 PM
Waning Gibbous, 95% visible
Pressure 29.86 in
Visibility 3.0 miles
Clouds Overcast 200 ft
Dew Point 46 °F
Humidity 97%
Rainfall 0.06 in
Snow Depth Not available.
UV 0 out of 12
Pollen 10.20 out of 12
Air Quality Not available.
Flu Activity Sporadic
METAR KCUT 060553Z AUTO VRB04KT 3SM BR OVC002 08/08 A2986 RMK AO2 RAB04E32 SLPNO P0001 60006 T00830078 10117 20083 58008

More Conditions Fewer Conditions

Pressure 29.86 in
Visibility 3.0 miles
Clouds Overcast 200 ft
Dew Point 46 °F
Humidity 97%
Rainfall 0.06 in
Snow Depth Not available.
UV 0 out of 12
Pollen 10.20 out of 12
Air Quality Not available.
Flu Activity Sporadic
METAR KCUT 060553Z AUTO VRB04KT 3SM BR OVC002 08/08 A2986 RMK AO2 RAB04E32 SLPNO P0001 60006 T00830078 10117 20083 58008

More Conditions Fewer Conditions

10-Day Weather Forecast

Almanac

Astronomy

May. 06, 2015 Rise Set
Actual Time
Civil Twilight
Nautical Twilight
Astronomical Twilight
Moon
Length of Visible Light
Length of Day
Tomorrow will be .
, % of the Moon is Illuminated

Today's Extremes

State Highs State Lows

Community

WunderPhotos

Upload Photos

1,818,848 photos uploaded!

WunderBlogs® & News

Nearby

Air Quality

  Air Quality AQ Index Pollutant
Not available.

Snow Depth

Station Depth Elevation

Earthquake Activity

City Distance Mag. Time & Date
Minimum magnitude displayed is 2.5.

Coastal Water Temperatures

Place Temperature

Stations

Nearby Weather Stations

Station Location Temp. Windchill Dew Point Humidity Wind Precip. Elev Updated Type